Time,TemperatureF,DewpointF,PressureIn,WindDirection,WindDirectionDegrees,WindSpeedMPH,WindSpeedGustMPH,Humidity,HourlyPrecipIn,Conditions,Clouds,dailyrainin,SolarRadiationWatts/m^2,SoftwareType,DateUTC
2013-06-02 00:01:00,72.1,67.7,29.78,West,262,4.0,7.0,86,0.00,,CLR,0.00,0.00,VWS V14.01,2013-06-02 04:01:00,
2013-06-02 00:11:00,72.0,67.9,29.78,West,262,6.0,7.0,87,0.00,,CLR,0.00,0.00,VWS V14.01,2013-06-02 04:11:00,
2013-06-02 00:21:00,71.8,67.7,29.77,West,267,5.0,7.0,87,0.00,,CLR,0.00,0.00,VWS V14.01,2013-06-02 04:21:00,
2013-06-02 00:31:00,72.1,68.0,29.77,WSW,256,6.0,7.0,87,0.00,,CLR,0.00,0.00,VWS V14.01,2013-06-02 04:31:00,
2013-06-02 00:41:00,71.5,67.8,29.77,West,266,3.0,9.0,88,0.00,,CLR,0.00,0.00,VWS V14.01,2013-06-02 04:41:00,
2013-06-02 00:51:00,71.5,67.8,29.77,West,261,6.0,7.0,88,0.00,,CLR,0.00,0.00,VWS V14.01,2013-06-02 04:51:00,
2013-06-02 01:01:00,70.9,67.5,29.77,West,264,5.0,7.0,89,0.00,,CLR,0.00,0.00,VWS V14.01,2013-06-02 05:01:00,
2013-06-02 01:11:00,70.9,67.8,29.77,West,262,5.0,7.0,90,0.00,,CLR,0.00,0.00,VWS V14.01,2013-06-02 05:11:00,
2013-06-02 01:21:00,70.8,67.7,29.77,West,260,2.0,5.0,90,0.00,,CLR,0.00,0.00,VWS V14.01,2013-06-02 05:21:00,
2013-06-02 01:31:00,70.6,67.8,29.77,West,260,3.0,4.0,91,0.00,,CLR,0.00,0.00,VWS V14.01,2013-06-02 05:31:00,
2013-06-02 01:41:00,70.3,68.2,29.77,West,260,0.0,4.0,93,0.00,,CLR,0.00,0.00,VWS V14.01,2013-06-02 05:41:00,
2013-06-02 01:51:00,70.1,68.0,29.77,WSW,254,0.0,7.0,93,0.00,,CLR,0.00,0.00,VWS V14.01,2013-06-02 05:51:00,
2013-06-02 02:01:00,69.9,67.8,29.77,WSW,254,4.0,4.0,93,0.00,,CLR,0.00,0.00,VWS V14.01,2013-06-02 06:01:00,
2013-06-02 02:11:00,69.8,68.0,29.77,West,259,4.0,5.0,94,0.00,,CLR,0.00,0.00,VWS V14.01,2013-06-02 06:11:00,
2013-06-02 02:21:00,69.6,68.1,29.76,WSW,255,0.0,5.0,95,0.00,,CLR,0.00,0.00,VWS V14.01,2013-06-02 06:21:00,
2013-06-02 02:31:00,69.6,68.1,29.76,WSW,255,0.0,0.0,95,0.00,,CLR,0.00,0.00,VWS V14.01,2013-06-02 06:31:00,
2013-06-02 02:41:00,69.6,68.4,29.76,WSW,255,0.0,0.0,96,0.00,,CLR,0.00,0.00,VWS V14.01,2013-06-02 06:41:00,
2013-06-02 02:51:00,69.9,68.7,29.76,WSW,255,0.0,0.0,96,0.00,,CLR,0.00,0.00,VWS V14.01,2013-06-02 06:51:00,
2013-06-02 03:01:00,69.6,68.1,29.76,WSW,255,0.0,4.0,95,0.00,,CLR,0.00,0.00,VWS V14.01,2013-06-02 07:01:00,
2013-06-02 03:11:00,69.8,68.3,29.76,WSW,255,0.0,2.0,95,0.00,,CLR,0.00,0.00,VWS V14.01,2013-06-02 07:11:00,
2013-06-02 03:21:00,69.6,68.1,29.76,WSW,255,0.0,0.0,95,0.00,,CLR,0.00,0.00,VWS V14.01,2013-06-02 07:21:00,
2013-06-02 03:31:00,69.8,68.3,29.76,WSW,255,0.0,0.0,95,0.00,,CLR,0.00,0.00,VWS V14.01,2013-06-02 07:31:00,
2013-06-02 03:41:00,69.8,68.3,29.76,WSW,255,0.0,0.0,95,0.00,,CLR,0.00,0.00,VWS V14.01,2013-06-02 07:41:00,
2013-06-02 03:51:00,69.6,68.1,29.76,WSW,255,0.0,0.0,95,0.00,,CLR,0.00,0.00,VWS V14.01,2013-06-02 07:51:00,
2013-06-02 04:01:00,69.3,67.8,29.76,WSW,255,0.0,0.0,95,0.00,,CLR,0.00,0.00,VWS V14.01,2013-06-02 08:01:00,
2013-06-02 04:11:00,68.9,67.7,29.76,WSW,255,0.0,0.0,96,0.00,,CLR,0.00,0.00,VWS V14.01,2013-06-02 08:11:00,
2013-06-02 04:21:00,68.6,67.4,29.75,WSW,255,0.0,0.0,96,0.00,,CLR,0.00,0.00,VWS V14.01,2013-06-02 08:21:00,
2013-06-02 04:31:00,68.6,67.7,29.75,WSW,255,0.0,0.0,97,0.00,,CLR,0.00,0.00,VWS V14.01,2013-06-02 08:31:00,
2013-06-02 04:41:00,68.3,67.7,29.75,WSW,255,0.0,0.0,98,0.00,,CLR,0.00,0.00,VWS V14.01,2013-06-02 08:41:00,
2013-06-02 04:51:00,68.1,67.5,29.75,WSW,255,0.0,0.0,98,0.00,,CLR,0.00,0.00,VWS V14.01,2013-06-02 08:51:00,
2013-06-02 05:01:00,68.1,67.5,29.75,WSW,255,0.0,0.0,98,0.00,,CLR,0.00,0.00,VWS V14.01,2013-06-02 09:01:00,
2013-06-02 05:11:00,67.8,67.2,29.75,WSW,255,0.0,0.0,98,0.00,,CLR,0.00,0.00,VWS V14.01,2013-06-02 09:11:00,
2013-06-02 05:21:00,67.6,67.0,29.76,WSW,255,0.0,0.0,98,0.00,,CLR,0.00,7.00,VWS V14.01,2013-06-02 09:21:00,
2013-06-02 05:31:00,67.8,67.5,29.76,WSW,255,0.0,0.0,99,0.00,,CLR,0.00,12.00,VWS V14.01,2013-06-02 09:31:00,
2013-06-02 05:41:00,67.8,67.5,29.76,WSW,255,0.0,0.0,99,0.00,,CLR,0.00,16.00,VWS V14.01,2013-06-02 09:41:00,
2013-06-02 05:51:00,67.8,67.5,29.76,WSW,255,0.0,0.0,99,0.00,,CLR,0.00,25.00,VWS V14.01,2013-06-02 09:51:00,
2013-06-02 06:01:00,67.9,67.6,29.76,WSW,255,0.0,0.0,99,0.00,,CLR,0.00,32.00,VWS V14.01,2013-06-02 10:01:00,
2013-06-02 06:11:00,68.1,67.8,29.76,WSW,255,0.0,0.0,99,0.00,,CLR,0.00,39.00,VWS V14.01,2013-06-02 10:11:00,
2013-06-02 06:21:00,68.3,68.0,29.76,WSW,255,0.0,0.0,99,0.00,,CLR,0.00,44.00,VWS V14.01,2013-06-02 10:21:00,
2013-06-02 06:31:00,68.4,68.1,29.76,WSW,255,0.0,0.0,99,0.00,,CLR,0.00,47.00,VWS V14.01,2013-06-02 10:31:00,
2013-06-02 06:41:00,68.9,68.6,29.76,WSW,256,0.0,0.0,99,0.00,,CLR,0.00,51.00,VWS V14.01,2013-06-02 10:41:00,
2013-06-02 06:51:00,69.3,68.7,29.76,WSW,251,0.0,0.0,98,0.00,,CLR,0.00,58.00,VWS V14.01,2013-06-02 10:51:00,
2013-06-02 07:11:00,70.4,69.2,29.76,West,262,3.0,5.0,96,0.00,,CLR,0.00,58.00,VWS V14.01,2013-06-02 11:11:00,
2013-06-02 07:21:00,71.1,69.0,29.76,West,266,3.0,5.0,93,0.00,,CLR,0.00,53.00,VWS V14.01,2013-06-02 11:21:00,
2013-06-02 07:31:00,71.8,68.7,29.76,West,264,2.0,5.0,90,0.00,,CLR,0.00,54.00,VWS V14.01,2013-06-02 11:31:00,
2013-06-02 07:41:00,72.7,68.6,29.76,WSW,255,3.0,6.0,87,0.00,,CLR,0.00,272.00,VWS V14.01,2013-06-02 11:41:00,
2013-06-02 07:51:00,73.0,68.2,29.76,West,269,5.0,10.0,85,0.00,,CLR,0.00,70.00,VWS V14.01,2013-06-02 11:51:00,
2013-06-02 08:01:00,73.2,68.8,29.76,West,272,5.0,7.0,86,0.00,,CLR,0.00,90.00,VWS V14.01,2013-06-02 12:01:00,
2013-06-02 08:11:00,73.9,68.4,29.76,WSW,256,4.0,9.0,83,0.00,,CLR,0.00,69.00,VWS V14.01,2013-06-02 12:11:00,
2013-06-02 08:21:00,74.4,68.6,29.76,West,268,6.0,9.0,82,0.00,,CLR,0.00,111.00,VWS V14.01,2013-06-02 12:21:00,
2013-06-02 08:31:00,74.9,68.3,29.75,West,264,5.0,9.0,80,0.00,,CLR,0.00,162.00,VWS V14.01,2013-06-02 12:31:00,
2013-06-02 08:41:00,75.3,68.3,29.75,West,273,6.0,9.0,79,0.00,,CLR,0.00,65.00,VWS V14.01,2013-06-02 12:41:00,
2013-06-02 08:51:00,75.6,68.3,29.75,WSW,252,4.0,9.0,78,0.00,,CLR,0.00,90.00,VWS V14.01,2013-06-02 12:51:00,
2013-06-02 09:01:00,76.5,68.4,29.74,West,259,4.0,8.0,76,0.00,,CLR,0.00,69.00,VWS V14.01,2013-06-02 13:01:00,
2013-06-02 09:11:00,77.0,68.9,29.74,West,262,7.0,7.0,76,0.00,,CLR,0.00,79.00,VWS V14.01,2013-06-02 13:11:00,
2013-06-02 09:21:00,77.7,68.8,29.74,West,261,9.0,11.0,74,0.00,,CLR,0.00,139.00,VWS V14.01,2013-06-02 13:21:00,
2013-06-02 09:31:00,78.3,68.9,29.73,WSW,252,12.0,12.0,73,0.00,,CLR,0.00,74.00,VWS V14.01,2013-06-02 13:31:00,
2013-06-02 09:41:00,78.8,68.6,29.73,West,266,7.0,12.0,71,0.00,,CLR,0.00,88.00,VWS V14.01,2013-06-02 13:41:00,
2013-06-02 09:51:00,79.2,68.6,29.72,West,259,9.0,13.0,70,0.00,,CLR,0.00,97.00,VWS V14.01,2013-06-02 13:51:00,
2013-06-02 10:01:00,79.6,69.8,29.72,West,261,6.0,11.0,72,0.00,,CLR,0.00,83.00,VWS V14.01,2013-06-02 14:01:00,
2013-06-02 10:11:00,80.7,68.7,29.72,West,265,12.0,13.0,67,0.00,,CLR,0.00,81.00,VWS V14.01,2013-06-02 14:11:00,
2013-06-02 10:21:00,81.4,69.4,29.71,West,266,10.0,13.0,67,0.00,,CLR,0.00,139.00,VWS V14.01,2013-06-02 14:21:00,
2013-06-02 10:31:00,81.8,69.8,29.71,West,266,9.0,14.0,67,0.00,,CLR,0.00,104.00,VWS V14.01,2013-06-02 14:31:00,
2013-06-02 10:41:00,82.6,69.7,29.71,WSW,255,6.0,14.0,65,0.00,,CLR,0.00,104.00,VWS V14.01,2013-06-02 14:41:00,
2013-06-02 10:51:00,83.6,69.2,29.70,West,270,7.0,14.0,62,0.00,,CLR,0.00,860.00,VWS V14.01,2013-06-02 14:51:00,
2013-06-02 11:01:00,84.1,68.7,29.69,WSW,241,13.0,14.0,60,0.00,,CLR,0.00,881.00,VWS V14.01,2013-06-02 15:01:00,
2013-06-02 11:11:00,85.1,68.2,29.69,WSW,249,6.0,16.0,57,0.00,,CLR,0.00,902.00,VWS V14.01,2013-06-02 15:11:00,
2013-06-02 11:21:00,86.1,69.6,29.69,WSW,257,10.0,16.0,58,0.00,,CLR,0.00,912.00,VWS V14.01,2013-06-02 15:21:00,
2013-06-02 11:31:00,86.7,68.1,29.68,WNW,283,11.0,16.0,54,0.00,,CLR,0.00,921.00,VWS V14.01,2013-06-02 15:31:00,
2013-06-02 11:41:00,87.2,69.1,29.68,West,269,9.0,14.0,55,0.00,,CLR,0.00,933.00,VWS V14.01,2013-06-02 15:41:00,
2013-06-02 11:51:00,87.6,68.4,29.68,WSW,245,18.0,20.0,53,0.00,,CLR,0.00,935.00,VWS V14.01,2013-06-02 15:51:00,
2013-06-02 12:01:00,88.4,68.6,29.67,WSW,252,13.0,18.0,52,0.00,,CLR,0.00,954.00,VWS V14.01,2013-06-02 16:01:00,
2013-06-02 12:11:00,88.2,66.7,29.67,WSW,250,10.0,16.0,49,0.00,,SCT046,0.00,956.00,VWS V14.01,2013-06-02 16:11:00,
2013-06-02 12:21:00,89.0,66.2,29.67,WSW,245,13.0,21.0,47,0.00,,SCT046,0.00,965.00,VWS V14.01,2013-06-02 16:21:00,
2013-06-02 12:31:00,89.3,67.1,29.66,West,269,10.0,17.0,48,0.00,,SCT046,0.00,1000.00,VWS V14.01,2013-06-02 16:31:00,
2013-06-02 12:41:00,89.5,66.0,29.66,WSW,258,9.0,14.0,46,0.00,,SCT046,0.00,1028.00,VWS V14.01,2013-06-02 16:41:00,
2013-06-02 12:51:00,89.9,66.4,29.66,WSW,253,9.0,16.0,46,0.00,,SCT046,0.00,1037.00,VWS V14.01,2013-06-02 16:51:00,
2013-06-02 13:01:00,90.5,66.9,29.65,West,259,12.0,19.0,46,0.00,,SCT046,0.00,990.00,VWS V14.01,2013-06-02 17:01:00,
2013-06-02 13:11:00,90.3,66.7,29.65,West,264,7.0,17.0,46,0.00,,FEW055,0.00,1020.00,VWS V14.01,2013-06-02 17:11:00,
2013-06-02 13:21:00,90.3,69.2,29.65,WSW,240,5.0,13.0,50,0.00,,FEW055,0.00,995.00,VWS V14.01,2013-06-02 17:21:00,
2013-06-02 13:31:00,89.9,68.2,29.64,WSW,247,11.0,18.0,49,0.00,,FEW055,0.00,995.00,VWS V14.01,2013-06-02 17:31:00,
2013-06-02 13:41:00,89.9,67.0,29.64,SW,231,7.0,15.0,47,0.00,,FEW055,0.00,250.00,VWS V14.01,2013-06-02 17:41:00,
2013-06-02 13:51:00,90.3,68.6,29.64,WSW,245,11.0,16.0,49,0.00,,FEW055,0.00,969.00,VWS V14.01,2013-06-02 17:51:00,
2013-06-02 14:01:00,90.5,67.5,29.62,WSW,238,6.0,19.0,47,0.00,,FEW055,0.00,944.00,VWS V14.01,2013-06-02 18:01:00,
2013-06-02 14:11:00,90.7,67.1,29.62,SW,235,10.0,19.0,46,0.00,,FEW055,0.00,925.00,VWS V14.01,2013-06-02 18:11:00,
2013-06-02 14:21:00,91.0,66.7,29.61,WSW,252,9.0,15.0,45,0.00,,FEW055,0.00,949.00,VWS V14.01,2013-06-02 18:21:00,
2013-06-02 14:31:00,91.4,67.7,29.60,West,268,9.0,17.0,46,0.00,,FEW055,0.00,951.00,VWS V14.01,2013-06-02 18:31:00,
2013-06-02 14:41:00,91.2,66.9,29.60,West,262,7.0,15.0,45,0.00,,FEW055,0.00,933.00,VWS V14.01,2013-06-02 18:41:00,
2013-06-02 14:51:00,90.5,66.9,29.61,West,273,6.0,17.0,46,0.00,,FEW055,0.00,861.00,VWS V14.01,2013-06-02 18:51:00,
2013-06-02 15:01:00,90.1,65.9,29.60,West,276,9.0,15.0,45,0.00,,FEW055,0.00,770.00,VWS V14.01,2013-06-02 19:01:00,
2013-06-02 15:11:00,90.1,67.2,29.60,West,268,15.0,15.0,47,0.00,,SCT055,0.00,185.00,VWS V14.01,2013-06-02 19:11:00,
2013-06-02 15:21:00,90.7,67.1,29.59,West,271,10.0,19.0,46,0.00,,SCT055,0.00,663.00,VWS V14.01,2013-06-02 19:21:00,
2013-06-02 15:31:00,90.7,65.2,29.58,WSW,252,10.0,18.0,43,0.00,,SCT055,0.00,793.00,VWS V14.01,2013-06-02 19:31:00,
2013-06-02 15:41:00,89.5,65.4,29.58,WSW,251,6.0,20.0,45,0.00,,SCT055,0.00,153.00,VWS V14.01,2013-06-02 19:41:00,
2013-06-02 15:51:00,88.0,64.7,29.59,West,259,13.0,21.0,46,0.00,,SCT055,0.00,120.00,VWS V14.01,2013-06-02 19:51:00,
2013-06-02 16:01:00,82.2,60.6,29.65,NW,314,17.0,36.0,48,0.00,,SCT055,0.00,9.00,VWS V14.01,2013-06-02 20:01:00,
2013-06-02 16:11:00,76.8,61.9,29.65,NW,324,11.0,28.0,60,0.00,,FEW070,0.00,33.00,VWS V14.01,2013-06-02 20:11:00,
2013-06-02 16:21:00,75.4,62.4,29.67,WNW,298,6.0,25.0,64,0.00,,FEW070,0.00,5.00,VWS V14.01,2013-06-02 20:21:00,
2013-06-02 16:31:00,72.3,65.4,29.69,NNW,337,12.0,20.0,79,0.02,,FEW070,0.02,18.00,VWS V14.01,2013-06-02 20:31:00,
2013-06-02 16:41:00,70.1,65.7,29.69,West,274,6.0,14.0,86,0.03,,FEW070,0.03,9.00,VWS V14.01,2013-06-02 20:41:00,
2013-06-02 16:51:00,68.9,65.8,29.69,West,278,6.0,14.0,90,0.07,,FEW070,0.07,7.00,VWS V14.01,2013-06-02 20:51:00,
2013-06-02 17:01:00,68.6,65.9,29.72,West,274,5.0,11.0,91,0.10,,FEW070,0.10,0.00,VWS V14.01,2013-06-02 21:01:00,
2013-06-02 17:11:00,68.3,66.5,29.72,SW,220,0.0,5.0,94,0.28,,,0.28,14.00,VWS V14.01,2013-06-02 21:11:00,
2013-06-02 17:21:00,67.8,66.6,29.69,SSW,193,0.0,1.0,96,0.29,,,0.29,0.00,VWS V14.01,2013-06-02 21:21:00,
2013-06-02 17:31:00,67.6,66.7,29.70,NNW,327,0.0,6.0,97,0.51,,,0.51,0.00,VWS V14.01,2013-06-02 21:31:00,
2013-06-02 17:41:00,67.6,67.0,29.70,West,278,2.0,4.0,98,0.57,,,0.59,0.00,VWS V14.01,2013-06-02 21:41:00,
2013-06-02 17:51:00,67.4,66.8,29.72,WSW,253,4.0,10.0,98,0.60,,,0.63,0.00,VWS V14.01,2013-06-02 21:51:00,
2013-06-02 18:01:00,67.4,66.8,29.71,WSW,248,0.0,9.0,98,0.59,,,0.66,0.00,VWS V14.01,2013-06-02 22:01:00,
2013-06-02 18:11:00,67.3,67.0,29.71,WSW,248,0.0,3.0,99,0.56,,,0.66,0.00,VWS V14.01,2013-06-02 22:11:00,
2013-06-02 18:21:00,67.3,67.0,29.71,WSW,248,0.0,0.0,99,0.38,,,0.66,0.00,VWS V14.01,2013-06-02 22:21:00,
2013-06-02 18:31:00,67.3,67.0,29.71,WSW,248,0.0,0.0,99,0.37,,,0.66,12.00,VWS V14.01,2013-06-02 22:31:00,
2013-06-02 18:41:00,67.3,67.3,29.71,WSW,248,0.0,4.0,100,0.16,,,0.67,35.00,VWS V14.01,2013-06-02 22:41:00,
2013-06-02 18:51:00,67.6,67.6,29.71,WSW,248,0.0,3.0,100,0.08,,,0.67,74.00,VWS V14.01,2013-06-02 22:51:00,
2013-06-02 19:01:00,67.9,67.9,29.71,WSW,246,0.0,7.0,100,0.04,,,0.67,47.00,VWS V14.01,2013-06-02 23:01:00,
2013-06-02 19:11:00,67.8,67.8,29.71,WSW,246,0.0,3.0,100,0.01,,BKN120,0.67,9.00,VWS V14.01,2013-06-02 23:11:00,
2013-06-02 19:21:00,67.3,67.3,29.70,ESE,116,0.0,2.0,100,0.05,,BKN120,0.71,33.00,VWS V14.01,2013-06-02 23:21:00,
2013-06-02 19:31:00,67.6,67.6,29.69,ESE,116,0.0,1.0,100,0.05,,BKN120,0.71,21.00,VWS V14.01,2013-06-02 23:31:00,
2013-06-02 19:41:00,67.6,67.6,29.69,SW,236,0.0,4.0,100,0.05,,BKN120,0.71,26.00,VWS V14.01,2013-06-02 23:41:00,
2013-06-02 19:51:00,67.4,67.4,29.70,NNW,342,0.0,1.0,100,0.05,,BKN120,0.72,76.00,VWS V14.01,2013-06-02 23:51:00,
2013-06-02 20:01:00,67.4,67.4,29.70,WSW,240,0.0,6.0,100,0.05,,BKN120,0.72,69.00,VWS V14.01,2013-06-03 00:01:00,
2013-06-02 20:11:00,67.4,67.4,29.70,WSW,254,5.0,5.0,100,0.05,,OVC090,0.72,60.00,VWS V14.01,2013-06-03 00:11:00,
2013-06-02 20:21:00,67.3,67.3,29.69,WSW,247,5.0,7.0,100,0.05,,OVC090,0.72,47.00,VWS V14.01,2013-06-03 00:21:00,
2013-06-02 20:31:00,67.3,67.3,29.70,West,264,2.0,10.0,100,0.01,,OVC090,0.72,11.00,VWS V14.01,2013-06-03 00:31:00,
2013-06-02 20:41:00,67.1,67.1,29.70,WSW,253,3.0,7.0,100,0.01,,OVC090,0.72,0.00,VWS V14.01,2013-06-03 00:41:00,
2013-06-02 20:51:00,66.9,66.9,29.71,WSW,242,3.0,5.0,100,0.01,,OVC090,0.72,0.00,VWS V14.01,2013-06-03 00:51:00,
2013-06-02 21:01:00,66.8,66.8,29.72,WSW,255,3.0,7.0,100,0.00,,OVC090,0.72,0.00,VWS V14.01,2013-06-03 01:01:00,
2013-06-02 21:11:00,66.6,66.6,29.72,West,260,3.0,6.0,100,0.00,,SCT120,0.72,0.00,VWS V14.01,2013-06-03 01:11:00,
2013-06-02 21:21:00,66.6,66.6,29.72,WSW,245,3.0,7.0,100,0.00,,SCT120,0.72,0.00,VWS V14.01,2013-06-03 01:21:00,
2013-06-02 21:31:00,66.4,66.4,29.72,WSW,248,3.0,4.0,100,0.00,,SCT120,0.72,0.00,VWS V14.01,2013-06-03 01:31:00,
2013-06-02 21:41:00,66.4,66.4,29.72,WSW,248,0.0,4.0,100,0.00,,SCT120,0.72,0.00,VWS V14.01,2013-06-03 01:41:00,
2013-06-02 21:51:00,66.3,66.3,29.73,WSW,248,1.0,3.0,100,0.00,,SCT120,0.72,0.00,VWS V14.01,2013-06-03 01:51:00,
2013-06-02 22:01:00,66.3,66.3,29.72,WSW,248,0.0,3.0,100,0.00,,SCT120,0.72,0.00,VWS V14.01,2013-06-03 02:01:00,
2013-06-02 22:11:00,66.1,66.1,29.72,WSW,248,0.0,0.0,100,0.00,,CLR,0.72,0.00,VWS V14.01,2013-06-03 02:11:00,
2013-06-02 22:21:00,66.0,66.0,29.73,WSW,248,0.0,0.0,100,0.00,,CLR,0.72,0.00,VWS V14.01,2013-06-03 02:21:00,
2013-06-02 22:41:00,66.1,66.1,29.73,WSW,248,0.0,0.0,100,0.00,,CLR,0.72,0.00,VWS V14.01,2013-06-03 02:41:00,
2013-06-02 22:51:00,66.4,66.4,29.75,West,281,3.0,6.0,100,0.00,,CLR,0.72,0.00,VWS V14.01,2013-06-03 02:51:00,
2013-06-02 23:01:00,66.8,66.8,29.74,West,281,4.0,4.0,100,0.02,,CLR,0.74,0.00,VWS V14.01,2013-06-03 03:01:00,
2013-06-02 23:11:00,66.4,66.4,29.74,WNW,282,2.0,7.0,100,0.03,,FEW050,0.75,0.00,VWS V14.01,2013-06-03 03:11:00,
2013-06-02 23:21:00,66.3,66.3,29.74,West,281,0.0,3.0,100,0.03,,FEW050,0.75,0.00,VWS V14.01,2013-06-03 03:21:00,
2013-06-02 23:31:00,66.1,66.1,29.73,West,281,0.0,0.0,100,0.03,,FEW050,0.75,0.00,VWS V14.01,2013-06-03 03:31:00,
2013-06-02 23:41:00,66.1,66.1,29.73,West,281,0.0,0.0,100,0.03,,FEW050,0.75,0.00,VWS V14.01,2013-06-03 03:41:00,
2013-06-02 23:51:00,66.0,66.0,29.73,West,281,0.0,0.0,100,0.03,,FEW050,0.75,0.00,VWS V14.01,2013-06-03 03:51:00,